createdAt,value
2019-04-25T00:00:23.577Z,4.10
2019-04-25T00:01:23.542Z,4.00
2019-04-25T00:02:23.534Z,3.70
2019-04-25T00:03:23.565Z,4.20
2019-04-25T00:04:23.552Z,4.20
2019-04-25T00:05:23.526Z,4.00
2019-04-25T00:06:23.492Z,4.40
2019-04-25T00:07:23.492Z,3.80
2019-04-25T00:08:23.480Z,4.60
2019-04-25T00:09:23.471Z,4.10
2019-04-25T00:10:23.452Z,4.00
2019-04-25T00:11:23.448Z,4.40
2019-04-25T00:12:23.428Z,4.10
2019-04-25T00:13:23.419Z,4.20
2019-04-25T00:14:23.437Z,4.20
2019-04-25T00:15:23.407Z,4.20
2019-04-25T00:16:23.396Z,4.40
2019-04-25T00:17:23.378Z,4.20
2019-04-25T00:18:23.460Z,4.10
2019-04-25T00:19:23.366Z,3.90
2019-04-25T00:20:23.366Z,3.90
2019-04-25T00:21:23.344Z,4.20
2019-04-25T00:22:23.347Z,4.00
2019-04-25T00:23:23.314Z,4.20
2019-04-25T00:24:23.826Z,4.10
2019-04-25T00:25:23.311Z,4.40
2019-04-25T00:26:23.283Z,3.90
2019-04-25T00:27:23.724Z,4.60
2019-04-25T00:28:23.262Z,4.20
2019-04-25T00:29:23.241Z,4.00
2019-04-25T00:30:23.251Z,4.00
2019-04-25T00:31:24.765Z,4.10
2019-04-25T00:32:23.231Z,4.30
2019-04-25T00:33:23.225Z,4.20
2019-04-25T00:34:23.195Z,4.00
2019-04-25T00:35:23.198Z,4.20
2019-04-25T00:36:23.173Z,4.10
2019-04-25T00:37:23.159Z,4.20
2019-04-25T00:38:23.161Z,4.30
2019-04-25T00:39:23.137Z,4.40
2019-04-25T00:40:23.147Z,4.20
2019-04-25T00:41:23.116Z,3.50
2019-04-25T00:42:23.253Z,4.00
2019-04-25T00:43:23.107Z,4.50
2019-04-25T00:44:23.095Z,4.00
2019-04-25T00:45:23.076Z,4.20
2019-04-25T00:46:23.068Z,4.40
2019-04-25T00:47:23.053Z,4.40
2019-04-25T00:48:23.053Z,4.00
2019-04-25T00:49:23.699Z,4.00
2019-04-25T00:50:23.023Z,3.90
2019-04-25T00:51:23.028Z,3.70
2019-04-25T00:52:23.002Z,4.40
2019-04-25T00:53:22.991Z,4.20
2019-04-25T00:54:22.993Z,3.80
2019-04-25T00:55:28.533Z,3.80
2019-04-25T00:56:24.010Z,3.80
2019-04-25T00:57:22.960Z,3.90
2019-04-25T00:58:22.940Z,4.20
2019-04-25T00:59:22.934Z,3.70
2019-04-25T01:00:22.918Z,4.00
2019-04-25T01:01:22.911Z,4.10
2019-04-25T01:02:22.906Z,4.20
2019-04-25T01:03:22.889Z,3.60
2019-04-25T01:04:22.878Z,4.30
2019-04-25T01:05:22.867Z,3.60
2019-04-25T01:06:22.858Z,3.80
2019-04-25T01:07:22.838Z,3.90
2019-04-25T01:08:22.836Z,3.90
2019-04-25T01:09:22.847Z,3.70
2019-04-25T01:10:23.098Z,3.80
2019-04-25T01:11:22.804Z,3.70
2019-04-25T01:12:22.793Z,3.90
2019-04-25T01:13:22.775Z,4.10
2019-04-25T01:14:22.804Z,4.00
2019-04-25T01:15:22.754Z,3.90
2019-04-25T01:16:22.753Z,4.30
2019-04-25T01:17:22.940Z,3.90
2019-04-25T01:18:23.155Z,3.90
2019-04-25T01:19:23.460Z,3.90
2019-04-25T01:20:23.978Z,4.00
2019-04-25T01:21:23.735Z,4.20
2019-04-25T01:22:23.240Z,4.10
2019-04-25T01:23:23.710Z,4.30
2019-04-25T01:24:23.923Z,3.90
2019-04-25T01:25:23.408Z,4.20
2019-04-25T01:26:23.953Z,4.50
2019-04-25T01:27:23.360Z,4.60
2019-04-25T01:28:24.181Z,4.00
2019-04-25T01:29:23.474Z,3.80
2019-04-25T01:30:23.959Z,3.80
2019-04-25T01:31:23.299Z,4.40
2019-04-25T01:32:23.772Z,3.80
2019-04-25T01:33:23.348Z,4.60
2019-04-25T01:34:23.794Z,4.30
2019-04-25T01:35:23.775Z,3.90
2019-04-25T01:36:23.258Z,4.80
2019-04-25T01:37:23.712Z,4.30
2019-04-25T01:38:23.863Z,4.20
2019-04-25T01:39:24.149Z,4.50
2019-04-25T01:40:23.600Z,4.70
2019-04-25T01:41:23.882Z,4.30
2019-04-25T01:42:23.595Z,4.50
2019-04-25T01:43:23.364Z,4.30
2019-04-25T01:44:24.053Z,4.20
2019-04-25T01:45:23.965Z,4.50
2019-04-25T01:46:24.135Z,4.40
2019-04-25T01:47:23.894Z,4.40
2019-04-25T01:48:23.453Z,4.30
2019-04-25T01:49:23.859Z,4.30
2019-04-25T01:50:23.291Z,4.60
2019-04-25T01:51:23.975Z,4.50
2019-04-25T01:52:23.547Z,4.70
2019-04-25T01:53:24.120Z,4.00
2019-04-25T01:54:23.732Z,3.80
2019-04-25T01:55:23.401Z,4.40
2019-04-25T01:56:22.994Z,4.70
2019-04-25T01:57:23.925Z,4.60
2019-04-25T01:58:23.641Z,4.40
2019-04-25T01:59:23.733Z,4.50
2019-04-25T02:00:23.612Z,4.40
2019-04-25T02:01:22.267Z,4.30
2019-04-25T02:02:23.374Z,4.70
2019-04-25T02:03:25.378Z,4.50
2019-04-25T02:04:23.169Z,4.80
2019-04-25T02:05:23.726Z,4.30
2019-04-25T02:06:23.189Z,4.90
2019-04-25T02:07:23.349Z,4.60
2019-04-25T02:08:23.831Z,4.30
2019-04-25T02:09:23.317Z,4.70
2019-04-25T02:10:23.401Z,4.30
2019-04-25T02:11:22.197Z,4.40
2019-04-25T02:12:23.508Z,4.60
2019-04-25T02:13:23.621Z,4.40
2019-04-25T02:14:23.603Z,4.50
2019-04-25T02:15:23.449Z,4.50
2019-04-25T02:16:23.810Z,5.00
2019-04-25T02:17:22.089Z,4.50
2019-04-25T02:18:23.698Z,3.90
2019-04-25T02:19:22.067Z,4.60
2019-04-25T02:20:23.822Z,4.20
2019-04-25T02:21:23.518Z,4.80
2019-04-25T02:22:22.035Z,4.70
2019-04-25T02:23:22.035Z,4.40
2019-04-25T02:24:23.624Z,4.40
2019-04-25T02:25:22.973Z,4.30
2019-04-25T02:26:21.994Z,4.40
2019-04-25T02:27:22.016Z,4.90
2019-04-25T02:28:23.710Z,4.60
2019-04-25T02:29:23.442Z,4.50
2019-04-25T02:30:21.957Z,4.30
2019-04-25T02:31:21.943Z,4.30
2019-04-25T02:32:24.431Z,4.20
2019-04-25T02:33:24.021Z,4.70
2019-04-25T02:34:21.922Z,4.20
2019-04-25T02:35:21.922Z,4.70
2019-04-25T02:36:21.891Z,4.80
2019-04-25T02:37:21.899Z,4.30
2019-04-25T02:38:24.133Z,4.30
2019-04-25T02:39:21.878Z,5.30
2019-04-25T02:40:23.789Z,4.50
2019-04-25T02:41:21.840Z,4.70
2019-04-25T02:42:24.399Z,4.70
2019-04-25T02:43:23.780Z,5.10
2019-04-25T02:44:21.809Z,5.60
2019-04-25T02:45:24.268Z,5.40
2019-04-25T02:46:21.783Z,5.30
2019-04-25T02:47:21.785Z,5.20
2019-04-25T02:48:23.993Z,5.20
2019-04-25T02:49:32.692Z,5.50
2019-04-25T02:50:24.534Z,5.30
2019-04-25T02:51:24.158Z,5.60
2019-04-25T02:52:21.725Z,5.10
2019-04-25T02:53:23.889Z,5.60
2019-04-25T02:54:21.713Z,5.80
2019-04-25T02:55:30.624Z,5.40
2019-04-25T02:56:31.318Z,5.80
2019-04-25T02:57:24.879Z,5.60
2019-04-25T02:58:21.669Z,6.10
2019-04-25T02:59:21.665Z,5.80
2019-04-25T03:00:21.645Z,6.10
2019-04-25T03:01:25.697Z,6.30
2019-04-25T03:02:21.619Z,6.00
2019-04-25T03:03:21.609Z,6.30
2019-04-25T03:04:21.622Z,6.10
2019-04-25T03:05:21.578Z,6.70
2019-04-25T03:06:21.628Z,6.10
2019-04-25T03:07:21.594Z,7.00
2019-04-25T03:08:21.652Z,6.50
2019-04-25T03:09:21.555Z,6.90
2019-04-25T03:10:21.527Z,6.90
2019-04-25T03:11:21.517Z,6.70
2019-04-25T03:12:32.332Z,6.90
2019-04-25T03:13:24.593Z,7.00
2019-04-25T03:14:21.485Z,7.00
2019-04-25T03:15:21.472Z,6.70
2019-04-25T03:16:21.453Z,6.80
2019-04-25T03:17:21.464Z,6.30
2019-04-25T03:18:21.442Z,7.00
2019-04-25T03:19:21.433Z,7.00
2019-04-25T03:20:24.238Z,6.70
2019-04-25T03:21:21.411Z,7.20
2019-04-25T03:22:21.432Z,7.10
2019-04-25T03:23:21.393Z,7.20
2019-04-25T03:24:21.402Z,6.80
2019-04-25T03:25:21.381Z,7.20
2019-04-25T03:26:21.370Z,7.30
2019-04-25T03:27:21.338Z,7.60
2019-04-25T03:28:21.337Z,7.50
2019-04-25T03:29:21.329Z,7.60
2019-04-25T03:30:21.328Z,7.00
2019-04-25T03:31:25.867Z,8.10
2019-04-25T03:32:27.852Z,7.30
2019-04-25T03:33:22.285Z,7.80
2019-04-25T03:34:21.269Z,7.40
2019-04-25T03:35:21.256Z,7.80
2019-04-25T03:36:21.266Z,7.70
2019-04-25T03:37:21.250Z,7.60
2019-04-25T03:38:21.224Z,7.40
2019-04-25T03:39:21.214Z,7.30
2019-04-25T03:40:21.203Z,8.10
2019-04-25T03:41:21.213Z,7.70
2019-04-25T03:42:21.189Z,7.70
2019-04-25T03:43:21.177Z,7.50
2019-04-25T03:44:21.161Z,7.10
2019-04-25T03:45:21.171Z,7.60
2019-04-25T03:46:21.141Z,7.20
2019-04-25T03:47:21.131Z,7.70
2019-04-25T03:48:21.120Z,7.10
2019-04-25T03:49:21.107Z,7.90
2019-04-25T03:50:21.100Z,8.70
2019-04-25T03:51:21.080Z,8.10
2019-04-25T03:52:21.078Z,8.40
2019-04-25T03:53:21.077Z,8.40
2019-04-25T03:54:21.068Z,7.90
2019-04-25T03:55:21.049Z,8.50
2019-04-25T03:56:21.036Z,8.60
2019-04-25T03:57:21.026Z,8.10
2019-04-25T03:58:21.035Z,8.40
2019-04-25T03:59:20.996Z,8.70
2019-04-25T04:00:20.990Z,8.00
2019-04-25T04:01:20.985Z,7.90
2019-04-25T04:02:20.977Z,7.90
2019-04-25T04:03:20.964Z,8.60
2019-04-25T04:04:20.943Z,7.90
2019-04-25T04:05:20.935Z,8.10
2019-04-25T04:06:20.922Z,8.00
2019-04-25T04:07:20.912Z,8.00
2019-04-25T04:08:20.903Z,7.90
2019-04-25T04:09:20.931Z,7.80
2019-04-25T04:10:21.242Z,7.90
2019-04-25T04:11:20.871Z,7.30
2019-04-25T04:12:20.871Z,7.40
2019-04-25T04:13:20.863Z,8.00
2019-04-25T04:14:20.839Z,7.70
2019-04-25T04:15:20.897Z,8.00
2019-04-25T04:16:20.842Z,7.50
2019-04-25T04:17:20.846Z,7.40
2019-04-25T04:18:20.801Z,7.80
2019-04-25T04:19:20.787Z,6.90
2019-04-25T04:20:20.786Z,6.90
2019-04-25T04:21:20.755Z,7.10
2019-04-25T04:22:20.758Z,7.20
2019-04-25T04:23:20.761Z,7.40
2019-04-25T04:24:20.734Z,7.40
2019-04-25T04:25:20.724Z,6.80
2019-04-25T04:26:20.705Z,6.80
2019-04-25T04:27:20.703Z,7.20
2019-04-25T04:28:20.694Z,7.10
2019-04-25T04:29:20.683Z,6.30
2019-04-25T04:30:20.683Z,7.20
2019-04-25T04:31:20.673Z,7.30
2019-04-25T04:32:20.641Z,7.10
2019-04-25T04:33:29.621Z,6.50
2019-04-25T04:34:21.620Z,6.50
2019-04-25T04:35:20.611Z,6.90
2019-04-25T04:36:20.610Z,7.30
2019-04-25T04:37:20.601Z,6.70
2019-04-25T04:38:20.579Z,6.80
2019-04-25T04:39:20.571Z,6.60
2019-04-25T04:40:20.562Z,6.40
2019-04-25T04:41:20.547Z,6.40
2019-04-25T04:42:20.549Z,6.50
2019-04-25T04:43:20.526Z,6.60
2019-04-25T04:44:20.507Z,6.80
2019-04-25T04:45:20.498Z,6.40
2019-04-25T04:46:20.495Z,7.20
2019-04-25T04:47:20.494Z,6.80
2019-04-25T04:48:20.496Z,6.40
2019-04-25T04:49:20.474Z,6.20
2019-04-25T04:50:20.464Z,6.20
2019-04-25T04:51:20.441Z,6.50
2019-04-25T04:52:20.423Z,6.30
2019-04-25T04:53:20.412Z,6.50
2019-04-25T04:54:20.412Z,6.10
2019-04-25T04:55:20.413Z,6.60
2019-04-25T04:56:20.382Z,6.80
2019-04-25T04:57:31.035Z,6.20
2019-04-25T04:58:21.380Z,6.10
2019-04-25T04:59:20.351Z,6.10
2019-04-25T05:00:20.350Z,6.50
2019-04-25T05:01:20.349Z,5.80
2019-04-25T05:02:20.319Z,5.70
2019-04-25T05:03:20.330Z,6.30
2019-04-25T05:04:20.309Z,6.50
2019-04-25T05:05:20.287Z,5.90
2019-04-25T05:06:20.277Z,6.10
2019-04-25T05:07:20.272Z,5.50
2019-04-25T05:08:20.257Z,5.60
2019-04-25T05:09:20.266Z,5.40
2019-04-25T05:10:20.236Z,5.40
2019-04-25T05:11:20.236Z,5.60
2019-04-25T05:12:20.216Z,5.50
2019-04-25T05:13:20.204Z,5.40
2019-04-25T05:14:20.213Z,5.20
2019-04-25T05:15:20.579Z,4.90
2019-04-25T05:16:20.189Z,5.20
2019-04-25T05:17:20.153Z,5.10
2019-04-25T05:18:32.994Z,6.60
2019-04-25T05:19:22.038Z,5.40
2019-04-25T05:20:20.172Z,5.60
2019-04-25T05:21:20.384Z,6.10
2019-04-25T05:22:20.428Z,5.60
2019-04-25T05:23:20.984Z,5.40
2019-04-25T05:24:20.837Z,4.50
2019-04-25T05:25:20.666Z,4.80
2019-04-25T05:26:21.017Z,4.90
2019-04-25T05:27:32.971Z,5.60
2019-04-25T05:28:21.059Z,4.80
2019-04-25T05:29:22.094Z,5.10
2019-04-25T05:30:20.018Z,4.80
2019-04-25T05:31:20.021Z,5.10
2019-04-25T05:32:20.007Z,5.30
2019-04-25T05:33:21.548Z,4.80
2019-04-25T05:34:19.978Z,4.60
2019-04-25T05:35:19.999Z,4.60
2019-04-25T05:36:19.958Z,4.30
2019-04-25T05:37:19.945Z,5.20
2019-04-25T05:38:20.102Z,6.60
2019-04-25T05:39:20.361Z,5.40
2019-04-25T05:40:20.142Z,5.50
2019-04-25T05:41:20.277Z,4.70
2019-04-25T05:42:20.318Z,5.20
2019-04-25T05:43:20.464Z,4.80
2019-04-25T05:44:20.843Z,5.90
2019-04-25T05:45:19.980Z,5.60
2019-04-25T05:46:19.861Z,4.50
2019-04-25T05:47:21.411Z,4.40
2019-04-25T05:48:19.842Z,5.30
2019-04-25T05:49:19.821Z,5.00
2019-04-25T05:50:19.959Z,4.00
2019-04-25T05:51:19.792Z,4.00
2019-04-25T05:52:19.926Z,4.50
2019-04-25T05:53:19.843Z,4.20
2019-04-25T05:54:20.550Z,3.70
2019-04-25T05:55:20.838Z,4.30
2019-04-25T05:56:20.150Z,5.40
2019-04-25T05:57:19.730Z,4.80
2019-04-25T05:58:20.454Z,4.70
2019-04-25T05:59:19.720Z,3.80
2019-04-25T06:00:20.603Z,4.10
2019-04-25T06:01:19.689Z,3.80
2019-04-25T06:02:19.676Z,3.70
2019-04-25T06:03:19.682Z,4.00
2019-04-25T06:04:19.667Z,3.90
2019-04-25T06:05:19.656Z,3.80
2019-04-25T06:06:19.626Z,3.90
2019-04-25T06:07:19.627Z,3.50
2019-04-25T06:08:19.633Z,3.60
2019-04-25T06:09:19.594Z,3.40
2019-04-25T06:10:19.594Z,3.50
2019-04-25T06:11:19.653Z,3.20
2019-04-25T06:12:19.854Z,3.40
2019-04-25T06:13:19.627Z,3.80
2019-04-25T06:14:19.935Z,3.90
2019-04-25T06:15:19.967Z,3.20
2019-04-25T06:16:20.201Z,3.00
2019-04-25T06:17:20.133Z,2.80
2019-04-25T06:18:19.892Z,2.90
2019-04-25T06:19:20.816Z,2.90
2019-04-25T06:20:20.116Z,3.10
2019-04-25T06:21:19.994Z,3.10
2019-04-25T06:22:19.939Z,3.30
2019-04-25T06:23:20.500Z,3.60
2019-04-25T06:24:20.393Z,3.60
2019-04-25T06:25:21.177Z,3.70
2019-04-25T06:26:30.808Z,3.30
2019-04-25T06:27:20.568Z,2.90
2019-04-25T06:28:19.606Z,3.60
2019-04-25T06:29:20.358Z,3.20
2019-04-25T06:30:20.360Z,3.60
2019-04-25T06:31:19.882Z,4.00
2019-04-25T06:32:19.348Z,3.90
2019-04-25T06:33:21.129Z,4.00
2019-04-25T06:34:20.006Z,3.90
2019-04-25T06:35:21.004Z,3.50
2019-04-25T06:36:20.319Z,3.40
2019-04-25T06:37:19.306Z,3.50
2019-04-25T06:38:19.301Z,3.10
2019-04-25T06:39:20.322Z,3.50
2019-04-25T06:40:19.671Z,3.50
2019-04-25T06:41:21.076Z,3.00
2019-04-25T06:42:19.254Z,3.00
2019-04-25T06:43:19.254Z,3.40
2019-04-25T06:44:20.031Z,3.40
2019-04-25T06:45:19.211Z,3.50
2019-04-25T06:46:19.214Z,3.80
2019-04-25T06:47:19.186Z,3.20
2019-04-25T06:48:19.195Z,3.40
2019-04-25T06:49:19.181Z,3.10
2019-04-25T06:50:19.153Z,2.90
2019-04-25T06:51:19.143Z,3.20
2019-04-25T06:52:19.131Z,3.40
2019-04-25T06:53:19.134Z,3.50
2019-04-25T06:54:19.142Z,3.30
2019-04-25T06:55:20.972Z,3.50
2019-04-25T06:56:19.110Z,3.10
2019-04-25T06:57:19.080Z,4.30
2019-04-25T06:58:19.136Z,3.60
2019-04-25T06:59:19.055Z,3.60
2019-04-25T07:00:19.077Z,3.70
2019-04-25T07:01:19.038Z,3.40
2019-04-25T07:02:19.038Z,3.40
2019-04-25T07:03:19.017Z,3.00
2019-04-25T07:04:19.019Z,3.50
2019-04-25T07:05:26.651Z,3.30
2019-04-25T07:06:19.984Z,3.20
2019-04-25T07:07:18.976Z,3.20
2019-04-25T07:08:18.954Z,3.50
2019-04-25T07:09:18.958Z,3.50
2019-04-25T07:10:18.955Z,3.30
2019-04-25T07:11:18.931Z,3.10
2019-04-25T07:12:18.912Z,3.20
2019-04-25T07:13:18.903Z,3.10
2019-04-25T07:14:18.904Z,2.90
2019-04-25T07:15:18.883Z,2.90
2019-04-25T07:16:18.901Z,3.10
2019-04-25T07:17:18.860Z,3.30
2019-04-25T07:18:18.862Z,3.00
2019-04-25T07:19:18.832Z,3.10
2019-04-25T07:20:18.831Z,3.20
2019-04-25T07:21:18.831Z,2.80
2019-04-25T07:22:18.806Z,3.00
2019-04-25T07:23:18.798Z,2.90
2019-04-25T07:24:18.822Z,3.20
2019-04-25T07:25:18.776Z,3.20
2019-04-25T07:26:18.778Z,3.70
2019-04-25T07:27:18.757Z,3.10
2019-04-25T07:28:24.310Z,3.20
2019-04-25T07:29:19.728Z,3.10
2019-04-25T07:30:27.205Z,2.80
2019-04-25T07:31:19.716Z,3.40
2019-04-25T07:32:18.717Z,3.20
2019-04-25T07:33:18.735Z,3.10
2019-04-25T07:34:18.686Z,3.30
2019-04-25T07:35:18.686Z,2.90
2019-04-25T07:36:18.664Z,3.20
2019-04-25T07:37:18.681Z,3.00
2019-04-25T07:38:18.643Z,3.30
2019-04-25T07:39:18.623Z,3.00
2019-04-25T07:40:18.614Z,3.40
2019-04-25T07:41:18.603Z,3.50
2019-04-25T07:42:18.613Z,3.60
2019-04-25T07:43:18.582Z,2.90
2019-04-25T07:44:21.902Z,3.20
2019-04-25T07:45:19.573Z,3.00
2019-04-25T07:46:18.562Z,3.00
2019-04-25T07:47:18.530Z,3.20
2019-04-25T07:48:18.541Z,3.10
2019-04-25T07:49:18.537Z,3.40
2019-04-25T07:50:18.530Z,2.70
2019-04-25T07:51:18.509Z,3.20
2019-04-25T07:52:18.499Z,2.90
2019-04-25T07:53:18.469Z,3.10
2019-04-25T07:54:18.469Z,3.10
2019-04-25T07:55:18.458Z,3.30
2019-04-25T07:56:18.448Z,3.10
2019-04-25T07:57:18.456Z,3.10
2019-04-25T07:58:18.420Z,3.00
2019-04-25T07:59:18.396Z,3.40
2019-04-25T08:00:18.396Z,3.40
2019-04-25T08:01:18.385Z,2.80
2019-04-25T08:02:18.426Z,3.00
2019-04-25T08:03:18.364Z,3.10
2019-04-25T08:04:18.357Z,2.90
2019-04-25T08:05:18.343Z,2.90
2019-04-25T08:06:18.339Z,3.30
2019-04-25T08:07:18.343Z,3.40
2019-04-25T08:08:18.318Z,3.00
2019-04-25T08:09:18.322Z,2.60
2019-04-25T08:10:18.297Z,3.20
2019-04-25T08:11:18.293Z,2.60
2019-04-25T08:12:18.271Z,3.10
2019-04-25T08:13:18.259Z,3.30
2019-04-25T08:14:18.257Z,3.50
2019-04-25T08:15:18.230Z,3.40
2019-04-25T08:16:18.237Z,3.20
2019-04-25T08:17:18.227Z,3.30
2019-04-25T08:18:18.203Z,3.70
2019-04-25T08:19:18.197Z,3.10
2019-04-25T08:20:18.207Z,3.50
2019-04-25T08:21:18.167Z,3.00
2019-04-25T08:22:18.166Z,3.00
2019-04-25T08:23:18.157Z,3.30
2019-04-25T08:24:18.136Z,2.80
2019-04-25T08:25:18.146Z,2.80
2019-04-25T08:26:18.116Z,3.20
2019-04-25T08:27:18.105Z,2.90
2019-04-25T08:28:18.103Z,2.90
2019-04-25T08:29:18.087Z,2.90
2019-04-25T08:30:18.087Z,3.10
2019-04-25T08:31:18.064Z,2.60
2019-04-25T08:32:18.053Z,3.10
2019-04-25T08:33:18.044Z,3.00
2019-04-25T08:34:18.053Z,3.20
2019-04-25T08:35:18.043Z,2.80
2019-04-25T08:36:18.015Z,2.90
2019-04-25T08:37:21.028Z,2.50
2019-04-25T08:38:17.994Z,2.80
2019-04-25T08:39:17.982Z,2.90
2019-04-25T08:40:17.965Z,3.40
2019-04-25T08:41:17.951Z,3.00
2019-04-25T08:42:17.961Z,2.80
2019-04-25T08:43:17.940Z,3.10
2019-04-25T08:44:17.921Z,3.00
2019-04-25T08:45:18.710Z,2.90
2019-04-25T08:46:17.909Z,3.10
2019-04-25T08:47:17.890Z,2.80
2019-04-25T08:48:17.877Z,3.20
2019-04-25T08:49:17.876Z,3.30
2019-04-25T08:50:26.708Z,3.20
2019-04-25T08:51:18.863Z,2.90
2019-04-25T08:52:17.837Z,3.00
2019-04-25T08:53:17.826Z,2.70
2019-04-25T08:54:17.826Z,3.40
2019-04-25T08:55:18.335Z,3.20
2019-04-25T08:56:17.834Z,3.10
2019-04-25T08:57:17.789Z,3.00
2019-04-25T08:59:40.077Z,2.60
2019-04-25T09:00:35.765Z,2.60
2019-04-25T09:01:36.553Z,3.20
2019-04-25T09:02:36.056Z,3.10
2019-04-25T09:03:35.282Z,2.80
2019-04-25T09:04:35.658Z,2.90
2019-04-25T09:05:36.097Z,2.80
2019-04-25T09:06:36.059Z,2.50
2019-04-25T09:07:35.361Z,2.40
2019-04-25T09:08:35.963Z,2.40
2019-04-25T09:09:35.387Z,2.40
2019-04-25T09:10:35.784Z,2.80
2019-04-25T09:11:37.973Z,2.40
2019-04-25T09:12:35.570Z,2.40
2019-04-25T09:13:35.825Z,2.20
2019-04-25T09:14:35.488Z,2.20
2019-04-25T09:15:36.563Z,2.10
2019-04-25T09:16:35.400Z,2.30
2019-04-25T09:17:35.879Z,2.10
2019-04-25T09:18:36.067Z,2.00
2019-04-25T09:19:35.969Z,2.30
2019-04-25T09:20:38.046Z,2.10
2019-04-25T09:21:36.503Z,2.10
2019-04-25T09:22:35.264Z,2.20
2019-04-25T09:23:35.608Z,2.30
2019-04-25T09:24:36.204Z,2.30
2019-04-25T09:25:34.609Z,2.50
2019-04-25T09:26:35.039Z,2.50
2019-04-25T09:27:35.193Z,2.10
2019-04-25T09:28:35.069Z,2.50
2019-04-25T09:29:35.277Z,2.60
2019-04-25T09:30:34.943Z,2.10
2019-04-25T09:31:37.056Z,2.50
2019-04-25T09:32:33.846Z,2.00
2019-04-25T09:33:35.146Z,2.40
2019-04-25T09:34:33.643Z,2.40
2019-04-25T09:35:33.660Z,2.00
2019-04-25T09:36:33.663Z,2.20
2019-04-25T09:37:34.445Z,2.60
2019-04-25T09:38:34.803Z,2.60
2019-04-25T09:39:34.658Z,2.90
2019-04-25T09:40:34.162Z,2.50
2019-04-25T09:41:33.657Z,2.90
2019-04-25T09:42:33.834Z,3.10
2019-04-25T09:43:33.549Z,3.00
2019-04-25T09:44:36.141Z,2.90
2019-04-25T09:45:33.938Z,2.90
2019-04-25T09:46:34.217Z,3.10
2019-04-25T09:47:35.596Z,4.00
2019-04-25T09:48:35.364Z,3.70
2019-04-25T09:49:33.895Z,3.40
2019-04-25T09:50:33.965Z,3.70
2019-04-25T09:51:33.665Z,4.20
2019-04-25T09:52:34.047Z,4.00
2019-04-25T09:53:34.837Z,4.30
2019-04-25T09:54:33.470Z,3.30
2019-04-25T09:55:34.099Z,3.50
2019-04-25T09:56:33.862Z,3.10
2019-04-25T09:57:36.246Z,3.40
2019-04-25T09:58:34.533Z,3.40
2019-04-25T09:59:35.038Z,3.10
2019-04-25T10:00:33.480Z,2.90
2019-04-25T10:01:33.878Z,2.80
2019-04-25T10:02:33.136Z,2.90
2019-04-25T10:03:33.375Z,2.70
2019-04-25T10:04:34.627Z,2.50
2019-04-25T10:05:33.910Z,3.00
2019-04-25T10:06:33.345Z,2.80
2019-04-25T10:07:33.057Z,2.60
2019-04-25T10:08:34.304Z,2.90
2019-04-25T10:09:33.736Z,3.90
2019-04-25T10:10:33.017Z,3.60
2019-04-25T10:11:33.515Z,2.90
2019-04-25T10:12:34.179Z,2.70
2019-04-25T10:13:33.728Z,2.50
2019-04-25T10:14:32.970Z,3.80
2019-04-25T10:15:34.009Z,2.70
2019-04-25T10:16:33.514Z,2.50
2019-04-25T10:17:33.785Z,2.30
2019-04-25T10:18:33.445Z,2.80
2019-04-25T10:19:34.430Z,2.70
2019-04-25T10:20:33.438Z,3.10
2019-04-25T10:21:34.271Z,3.20
2019-04-25T10:22:33.935Z,2.90
2019-04-25T10:23:34.238Z,3.00
2019-04-25T10:24:32.872Z,2.60
2019-04-25T10:25:33.440Z,2.50
2019-04-25T10:26:33.497Z,2.30
2019-04-25T10:27:32.846Z,2.70
2019-04-25T10:28:33.595Z,2.60
2019-04-25T10:29:41.760Z,2.20
2019-04-25T10:30:34.292Z,2.50
2019-04-25T10:31:33.893Z,2.20
2019-04-25T10:32:33.518Z,2.30
2019-04-25T10:33:32.771Z,2.60
2019-04-25T10:34:33.340Z,2.60
2019-04-25T10:35:40.886Z,2.20
2019-04-25T10:36:33.782Z,2.70
2019-04-25T10:37:33.939Z,2.30
2019-04-25T10:38:34.847Z,3.00
2019-04-25T10:39:34.034Z,2.50
2019-04-25T10:40:33.799Z,2.50
2019-04-25T10:41:33.697Z,2.40
2019-04-25T10:42:34.229Z,2.40
2019-04-25T10:43:34.239Z,2.90
2019-04-25T10:44:33.901Z,2.80
2019-04-25T10:45:34.073Z,2.70
2019-04-25T10:46:33.972Z,3.00
2019-04-25T10:47:33.471Z,2.60
2019-04-25T10:48:34.293Z,2.90
2019-04-25T10:49:34.364Z,2.60
2019-04-25T10:50:34.031Z,2.40
2019-04-25T10:51:34.158Z,2.10
2019-04-25T10:52:33.754Z,2.70
2019-04-25T10:53:33.849Z,2.50
2019-04-25T10:54:34.971Z,2.50
2019-04-25T10:55:32.548Z,2.20
2019-04-25T10:56:33.452Z,2.30
2019-04-25T10:57:34.019Z,2.30
2019-04-25T10:58:33.476Z,2.70
2019-04-25T10:59:32.483Z,2.40
2019-04-25T11:00:33.878Z,2.70
2019-04-25T11:01:33.874Z,2.30
2019-04-25T11:02:33.939Z,2.50
2019-04-25T11:03:33.773Z,2.50
2019-04-25T11:04:32.442Z,2.50
2019-04-25T11:05:34.188Z,2.60
2019-04-25T11:06:33.641Z,2.80
2019-04-25T11:07:33.915Z,2.40
2019-04-25T11:08:34.094Z,2.20
2019-04-25T11:09:34.041Z,2.60
2019-04-25T11:10:32.389Z,2.20
2019-04-25T11:11:34.070Z,2.50
2019-04-25T11:12:33.795Z,2.30
2019-04-25T11:13:33.970Z,2.40
2019-04-25T11:14:34.016Z,2.10
2019-04-25T11:15:33.904Z,2.20
2019-04-25T11:16:33.386Z,2.50
2019-04-25T11:17:33.860Z,2.30
2019-04-25T11:18:33.879Z,2.70
2019-04-25T11:19:33.867Z,2.30
2019-04-25T11:20:33.755Z,2.30
2019-04-25T11:21:33.281Z,2.20
2019-04-25T11:22:34.114Z,1.90
2019-04-25T11:23:32.237Z,1.90
2019-04-25T11:24:32.225Z,2.20
2019-04-25T11:25:34.071Z,2.60
2019-04-25T11:26:34.496Z,2.30
2019-04-25T11:27:33.970Z,2.20
2019-04-25T11:28:33.618Z,2.20
2019-04-25T11:29:32.185Z,2.40
2019-04-25T11:30:32.171Z,2.60
2019-04-25T11:31:33.553Z,2.50
2019-04-25T11:32:33.815Z,2.70
2019-04-25T11:33:33.470Z,2.40
2019-04-25T11:34:32.130Z,2.30
2019-04-25T11:35:32.120Z,2.40
2019-04-25T11:36:34.047Z,2.40
2019-04-25T11:37:32.091Z,2.40
2019-04-25T11:38:33.520Z,2.60
2019-04-25T11:39:32.069Z,2.60
2019-04-25T11:40:32.055Z,2.30
2019-04-25T11:41:34.172Z,2.50
2019-04-25T11:42:33.681Z,3.10
2019-04-25T11:43:32.029Z,2.60
2019-04-25T11:44:33.268Z,2.70
2019-04-25T11:45:31.998Z,2.50
2019-04-25T11:46:33.298Z,2.40
2019-04-25T11:47:33.421Z,2.50
2019-04-25T11:48:31.968Z,2.50
2019-04-25T11:49:31.967Z,3.60
2019-04-25T11:50:31.958Z,3.20
2019-04-25T11:51:31.944Z,2.80
2019-04-25T11:52:33.499Z,2.50
2019-04-25T11:53:33.755Z,2.40
2019-04-25T11:54:31.906Z,2.90
2019-04-25T11:55:31.895Z,2.90
2019-04-25T11:56:31.884Z,2.50
2019-04-25T11:57:31.874Z,3.20
2019-04-25T11:58:31.885Z,2.90
2019-04-25T11:59:31.852Z,2.80
2019-04-25T12:00:33.683Z,2.50
2019-04-25T12:01:33.510Z,2.60
2019-04-25T12:02:31.831Z,2.20
2019-04-25T12:03:33.487Z,2.70
2019-04-25T12:04:33.337Z,2.70
2019-04-25T12:05:31.792Z,2.40
2019-04-25T12:06:33.498Z,2.50
2019-04-25T12:07:31.778Z,2.30
2019-04-25T12:08:33.480Z,2.50
2019-04-25T12:09:33.259Z,2.70
2019-04-25T12:10:31.758Z,2.30
2019-04-25T12:11:31.730Z,2.60
2019-04-25T12:12:33.854Z,2.30
2019-04-25T12:13:31.708Z,2.40
2019-04-25T12:14:34.050Z,2.60
2019-04-25T12:15:33.285Z,2.70
2019-04-25T12:16:31.669Z,2.40
2019-04-25T12:17:31.659Z,2.50
2019-04-25T12:18:33.884Z,2.70
2019-04-25T12:19:35.832Z,2.40
2019-04-25T12:20:34.067Z,2.30
2019-04-25T12:21:31.618Z,2.50
2019-04-25T12:22:31.615Z,2.30
2019-04-25T12:23:31.633Z,2.60
2019-04-25T12:24:33.322Z,2.40
2019-04-25T12:25:31.654Z,2.70
2019-04-25T12:26:33.576Z,2.60
2019-04-25T12:27:31.585Z,2.70
2019-04-25T12:29:47.334Z,3.50
2019-04-25T12:30:47.447Z,3.00
2019-04-25T12:31:47.659Z,2.60
2019-04-25T12:32:47.939Z,2.70
2019-04-25T12:33:48.595Z,2.40
2019-04-25T12:34:47.793Z,2.40
2019-04-25T12:35:47.946Z,2.50
2019-04-25T12:36:48.474Z,2.50
2019-04-25T12:37:48.087Z,2.60
2019-04-25T12:38:48.307Z,2.50
2019-04-25T12:39:48.413Z,2.90
2019-04-25T12:40:48.156Z,2.90
2019-04-25T12:41:49.014Z,3.00
2019-04-25T12:42:47.867Z,3.00
2019-04-25T12:43:47.191Z,3.00
2019-04-25T12:44:47.824Z,3.10
2019-04-25T12:45:47.334Z,3.00
2019-04-25T12:46:47.148Z,2.70
2019-04-25T12:47:47.633Z,2.70
2019-04-25T12:48:47.661Z,2.60
2019-04-25T12:49:47.129Z,2.70
2019-04-25T12:50:48.367Z,2.40
2019-04-25T12:51:47.764Z,2.80
2019-04-25T12:52:47.089Z,2.70
2019-04-25T12:53:47.954Z,2.50
2019-04-25T12:54:47.573Z,2.40
2019-04-25T12:55:47.501Z,2.40
2019-04-25T12:56:47.493Z,2.70
2019-04-25T12:57:47.267Z,2.70
2019-04-25T12:58:47.855Z,2.70
2019-04-25T12:59:47.377Z,2.30
2019-04-25T13:00:49.391Z,2.90
2019-04-25T13:01:49.372Z,2.00
2019-04-25T13:02:46.996Z,2.40
2019-04-25T13:03:48.003Z,2.60
2019-04-25T13:04:47.770Z,2.50
2019-04-25T13:05:47.304Z,2.00
2019-04-25T13:06:48.704Z,2.20
2019-04-25T13:07:46.952Z,2.50
2019-04-25T13:08:46.913Z,2.30
2019-04-25T13:09:47.961Z,2.30
2019-04-25T13:10:46.892Z,2.50
2019-04-25T13:11:46.885Z,2.60
2019-04-25T13:12:46.884Z,2.00
2019-04-25T13:13:46.863Z,2.60
2019-04-25T13:14:46.877Z,2.60
2019-04-25T13:15:46.844Z,2.20
2019-04-25T13:16:46.831Z,2.60
2019-04-25T13:17:46.839Z,2.70
2019-04-25T13:18:46.809Z,2.60
2019-04-25T13:19:46.819Z,2.60
2019-04-25T13:20:46.792Z,2.50